sensor_id;sensor_type;location;lat;lon;timestamp;pressure;altitude;pressure_sealevel;temperature;humidity
81511;BME280;70931;48.796;8.440;2023-06-26T00:01:03;97167.84;;;16.84;63.72
81511;BME280;70931;48.796;8.440;2023-06-26T00:03:31;97170.97;;;16.74;65.68
81511;BME280;70931;48.796;8.440;2023-06-26T00:05:59;97165.38;;;16.76;65.90
81511;BME280;70931;48.796;8.440;2023-06-26T00:08:27;97165.81;;;16.66;66.48
81511;BME280;70931;48.796;8.440;2023-06-26T00:10:54;97167.91;;;16.64;65.71
81511;BME280;70931;48.796;8.440;2023-06-26T00:13:22;97173.25;;;16.71;64.04
81511;BME280;70931;48.796;8.440;2023-06-26T00:15:49;97173.06;;;16.72;65.66
81511;BME280;70931;48.796;8.440;2023-06-26T00:18:16;97172.84;;;16.74;65.45
81511;BME280;70931;48.796;8.440;2023-06-26T00:20:42;97176.59;;;16.60;66.22
81511;BME280;70931;48.796;8.440;2023-06-26T00:23:10;97166.66;;;16.67;65.69
81511;BME280;70931;48.796;8.440;2023-06-26T00:25:37;97169.13;;;16.75;65.79
81511;BME280;70931;48.796;8.440;2023-06-26T00:28:04;97173.25;;;16.77;64.57
81511;BME280;70931;48.796;8.440;2023-06-26T00:30:30;97169.53;;;16.72;65.83
81511;BME280;70931;48.796;8.440;2023-06-26T00:32:57;97167.88;;;16.71;65.73
81511;BME280;70931;48.796;8.440;2023-06-26T00:35:24;97165.41;;;16.69;65.66
81511;BME280;70931;48.796;8.440;2023-06-26T00:37:50;97167.47;;;16.67;65.78
81511;BME280;70931;48.796;8.440;2023-06-26T00:40:17;97169.13;;;16.68;65.48
81511;BME280;70931;48.796;8.440;2023-06-26T00:42:44;97179.47;;;16.65;65.58
81511;BME280;70931;48.796;8.440;2023-06-26T00:45:12;97174.97;;;16.59;65.96
81511;BME280;70931;48.796;8.440;2023-06-26T00:47:39;97176.56;;;16.53;66.24
81511;BME280;70931;48.796;8.440;2023-06-26T00:50:06;97176.56;;;16.53;65.89
81511;BME280;70931;48.796;8.440;2023-06-26T00:52:33;97174.09;;;16.45;65.82
81511;BME280;70931;48.796;8.440;2023-06-26T00:54:59;97175.34;;;16.42;66.46
81511;BME280;70931;48.796;8.440;2023-06-26T00:57:26;97172.84;;;16.47;66.67
81511;BME280;70931;48.796;8.440;2023-06-26T00:59:53;97174.94;;;16.45;66.09
81511;BME280;70931;48.796;8.440;2023-06-26T01:02:20;97174.94;;;16.45;66.55
81511;BME280;70931;48.796;8.440;2023-06-26T01:04:49;97169.13;;;16.48;66.12
81511;BME280;70931;48.796;8.440;2023-06-26T01:07:16;97174.53;;;16.29;67.08
81511;BME280;70931;48.796;8.440;2023-06-26T01:09:46;97169.94;;;16.36;66.63
81511;BME280;70931;48.796;8.440;2023-06-26T01:12:14;97176.19;;;16.49;66.33
81511;BME280;70931;48.796;8.440;2023-06-26T01:14:41;97171.22;;;16.46;66.20
81511;BME280;70931;48.796;8.440;2023-06-26T01:17:09;97171.22;;;16.46;66.00
81511;BME280;70931;48.796;8.440;2023-06-26T01:19:44;97175.34;;;16.42;66.29
81511;BME280;70931;48.796;8.440;2023-06-26T01:22:19;97174.13;;;16.38;66.24
81511;BME280;70931;48.796;8.440;2023-06-26T01:27:22;97166.66;;;16.27;66.37
81511;BME280;70931;48.796;8.440;2023-06-26T01:29:51;97160.66;;;16.25;66.95
81511;BME280;70931;48.796;8.440;2023-06-26T01:32:18;97157.34;;;16.30;67.16
81511;BME280;70931;48.796;8.440;2023-06-26T01:34:45;97160.03;;;16.23;67.29
81511;BME280;70931;48.796;8.440;2023-06-26T01:37:12;97146.41;;;16.18;67.59
81511;BME280;70931;48.796;8.440;2023-06-26T01:39:38;97151.78;;;16.18;66.71
81511;BME280;70931;48.796;8.440;2023-06-26T01:42:05;97153.81;;;16.16;67.67
81511;BME280;70931;48.796;8.440;2023-06-26T01:44:35;97152.16;;;16.02;68.15
81511;BME280;70931;48.796;8.440;2023-06-26T01:47:05;97145.34;;;15.93;68.16
81511;BME280;70931;48.796;8.440;2023-06-26T01:55:14;97145.34;;;15.93;68.33
81511;BME280;70931;48.796;8.440;2023-06-26T01:57:41;97145.53;;;15.85;68.59
81511;BME280;70931;48.796;8.440;2023-06-26T02:00:09;97152.19;;;15.95;68.46
81511;BME280;70931;48.796;8.440;2023-06-26T02:02:41;97154.03;;;15.95;67.57
81511;BME280;70931;48.796;8.440;2023-06-26T02:05:12;97149.47;;;15.89;68.35
81511;BME280;70931;48.796;8.440;2023-06-26T02:07:39;97150.31;;;15.89;68.07
81511;BME280;70931;48.796;8.440;2023-06-26T02:10:06;97151.56;;;16.00;68.31
81511;BME280;70931;48.796;8.440;2023-06-26T02:12:34;97148.66;;;15.95;67.94
81511;BME280;70931;48.796;8.440;2023-06-26T02:15:03;97153.00;;;16.09;67.29
81511;BME280;70931;48.796;8.440;2023-06-26T02:17:32;97146.78;;;16.35;66.96
81511;BME280;70931;48.796;8.440;2023-06-26T02:19:58;97145.53;;;16.37;65.82
81511;BME280;70931;48.796;8.440;2023-06-26T02:22:25;97143.91;;;16.23;66.51
81511;BME280;70931;48.796;8.440;2023-06-26T02:24:52;97143.69;;;16.18;66.69
81511;BME280;70931;48.796;8.440;2023-06-26T02:27:18;97147.63;;;16.22;68.42
81511;BME280;70931;48.796;8.440;2023-06-26T02:29:45;97142.22;;;16.16;67.10
81511;BME280;70931;48.796;8.440;2023-06-26T02:32:11;97145.34;;;16.19;67.44
81511;BME280;70931;48.796;8.440;2023-06-26T02:34:38;97148.03;;;16.19;66.96
81511;BME280;70931;48.796;8.440;2023-06-26T02:37:04;97138.94;;;16.20;67.68
81511;BME280;70931;48.796;8.440;2023-06-26T02:39:34;97133.13;;;16.23;66.96
81511;BME280;70931;48.796;8.440;2023-06-26T02:42:01;97143.88;;;16.10;66.82
81511;BME280;70931;48.796;8.440;2023-06-26T02:44:27;97136.47;;;16.12;67.63
81511;BME280;70931;48.796;8.440;2023-06-26T02:46:54;97137.69;;;16.16;67.84
81511;BME280;70931;48.796;8.440;2023-06-26T02:49:21;97144.31;;;16.20;67.02
81511;BME280;70931;48.796;8.440;2023-06-26T02:51:48;97139.75;;;16.14;66.78
81511;BME280;70931;48.796;8.440;2023-06-26T02:54:22;97140.56;;;16.02;68.19
81511;BME280;70931;48.796;8.440;2023-06-26T02:56:52;97140.59;;;15.95;67.81
81511;BME280;70931;48.796;8.440;2023-06-26T02:59:24;97144.91;;;15.96;67.12
81511;BME280;70931;48.796;8.440;2023-06-26T03:01:52;97138.53;;;15.97;66.01
81511;BME280;70931;48.796;8.440;2023-06-26T03:04:21;97141.81;;;15.99;65.60
81511;BME280;70931;48.796;8.440;2023-06-26T03:06:48;97143.91;;;15.97;66.42
81511;BME280;70931;48.796;8.440;2023-06-26T03:09:14;97147.59;;;15.96;67.34
81511;BME280;70931;48.796;8.440;2023-06-26T03:11:42;97143.06;;;15.90;67.98
81511;BME280;70931;48.796;8.440;2023-06-26T03:14:10;97143.28;;;15.75;68.17
81511;BME280;70931;48.796;8.440;2023-06-26T03:16:37;97144.72;;;15.78;67.43
81511;BME280;70931;48.796;8.440;2023-06-26T03:19:04;97138.50;;;15.90;68.27
81511;BME280;70931;48.796;8.440;2023-06-26T03:21:39;97139.75;;;15.88;67.95
81511;BME280;70931;48.796;8.440;2023-06-26T03:24:06;97142.66;;;15.86;67.76
81511;BME280;70931;48.796;8.440;2023-06-26T03:26:32;97137.66;;;15.90;68.03
81511;BME280;70931;48.796;8.440;2023-06-26T03:28:59;97150.09;;;15.84;68.16
81511;BME280;70931;48.796;8.440;2023-06-26T03:31:26;97145.13;;;16.14;67.37
81511;BME280;70931;48.796;8.440;2023-06-26T03:33:53;97144.31;;;16.20;66.78
81511;BME280;70931;48.796;8.440;2023-06-26T03:36:19;97146.81;;;16.15;67.01
81511;BME280;70931;48.796;8.440;2023-06-26T03:38:46;97146.78;;;16.22;66.93
81511;BME280;70931;48.796;8.440;2023-06-26T03:41:13;97145.75;;;16.23;66.44
81511;BME280;70931;48.796;8.440;2023-06-26T03:43:40;97149.50;;;16.09;67.23
81511;BME280;70931;48.796;8.440;2023-06-26T03:46:15;97147.22;;;15.92;68.15
81511;BME280;70931;48.796;8.440;2023-06-26T03:48:41;97146.16;;;15.87;68.34
81511;BME280;70931;48.796;8.440;2023-06-26T03:51:08;97144.31;;;15.94;68.17
81511;BME280;70931;48.796;8.440;2023-06-26T03:53:37;97141.81;;;15.99;68.76
81511;BME280;70931;48.796;8.440;2023-06-26T03:56:04;97142.03;;;15.98;68.45
81511;BME280;70931;48.796;8.440;2023-06-26T03:58:31;97142.66;;;16.06;67.76
81511;BME280;70931;48.796;8.440;2023-06-26T04:00:57;97146.78;;;16.02;68.33
81511;BME280;70931;48.796;8.440;2023-06-26T04:03:24;97143.50;;;16.00;68.48
81511;BME280;70931;48.796;8.440;2023-06-26T04:05:52;97142.06;;;16.04;68.39
81511;BME280;70931;48.796;8.440;2023-06-26T04:08:18;97151.75;;;16.05;68.65
81511;BME280;70931;48.796;8.440;2023-06-26T04:10:46;97144.13;;;16.15;68.70
81511;BME280;70931;48.796;8.440;2023-06-26T04:13:14;97157.13;;;16.25;68.00
81511;BME280;70931;48.796;8.440;2023-06-26T04:15:40;97146.16;;;16.39;67.54
81511;BME280;70931;48.796;8.440;2023-06-26T04:18:07;97153.38;;;16.45;67.50
81511;BME280;70931;48.796;8.440;2023-06-26T04:20:38;97156.72;;;16.54;67.51
81511;BME280;70931;48.796;8.440;2023-06-26T04:23:05;97155.06;;;16.60;67.12
81511;BME280;70931;48.796;8.440;2023-06-26T04:25:32;97152.97;;;16.62;67.47
81511;BME280;70931;48.796;8.440;2023-06-26T04:27:59;97151.75;;;16.58;67.24
81511;BME280;70931;48.796;8.440;2023-06-26T04:30:25;97155.47;;;16.70;68.00
81511;BME280;70931;48.796;8.440;2023-06-26T04:32:52;97155.22;;;16.78;67.76
81511;BME280;70931;48.796;8.440;2023-06-26T04:35:19;97156.66;;;16.87;67.45
81511;BME280;70931;48.796;8.440;2023-06-26T04:37:47;97152.06;;;16.94;67.61
81511;BME280;70931;48.796;8.440;2023-06-26T04:40:13;97135.88;;;16.94;67.29
81511;BME280;70931;48.796;8.440;2023-06-26T04:42:40;97148.75;;;16.92;67.09
81511;BME280;70931;48.796;8.440;2023-06-26T04:45:07;97142.56;;;16.85;67.49
81511;BME280;70931;48.796;8.440;2023-06-26T04:47:33;97149.63;;;16.79;68.32
81511;BME280;70931;48.796;8.440;2023-06-26T04:50:00;97154.22;;;16.72;68.70
81511;BME280;70931;48.796;8.440;2023-06-26T04:52:27;97143.03;;;16.62;69.89
81511;BME280;70931;48.796;8.440;2023-06-26T04:54:53;97148.03;;;16.59;70.07
81511;BME280;70931;48.796;8.440;2023-06-26T04:57:20;97145.13;;;16.53;70.32
81511;BME280;70931;48.796;8.440;2023-06-26T04:59:46;97142.63;;;16.45;70.57
81511;BME280;70931;48.796;8.440;2023-06-26T05:02:13;97131.03;;;16.45;70.96
81511;BME280;70931;48.796;8.440;2023-06-26T05:04:41;97149.25;;;16.49;70.90
81511;BME280;70931;48.796;8.440;2023-06-26T05:07:08;97139.31;;;16.43;71.55
81511;BME280;70931;48.796;8.440;2023-06-26T05:09:35;97140.38;;;16.29;72.29
81511;BME280;70931;48.796;8.440;2023-06-26T05:12:02;97136.84;;;16.35;72.08
81511;BME280;70931;48.796;8.440;2023-06-26T05:14:29;97140.56;;;16.41;72.37
81511;BME280;70931;48.796;8.440;2023-06-26T05:16:55;97144.69;;;16.43;72.33
81511;BME280;70931;48.796;8.440;2023-06-26T05:19:22;97138.47;;;16.49;72.98
81511;BME280;70931;48.796;8.440;2023-06-26T05:21:50;97137.69;;;16.56;72.48
81511;BME280;70931;48.796;8.440;2023-06-26T05:24:17;97141.16;;;16.56;72.46
81511;BME280;70931;48.796;8.440;2023-06-26T05:26:44;97140.56;;;16.54;73.09
81511;BME280;70931;48.796;8.440;2023-06-26T05:29:11;97130.63;;;16.55;72.89
81511;BME280;70931;48.796;8.440;2023-06-26T05:31:40;97137.25;;;16.59;73.12
81511;BME280;70931;48.796;8.440;2023-06-26T05:34:09;97142.19;;;16.75;72.76
81511;BME280;70931;48.796;8.440;2023-06-26T05:36:37;97147.50;;;16.88;71.88
81511;BME280;70931;48.796;8.440;2023-06-26T05:39:05;97132.16;;;16.95;72.21
81511;BME280;70931;48.796;8.440;2023-06-26T05:41:32;97153.66;;;17.08;72.33
81511;BME280;70931;48.796;8.440;2023-06-26T05:43:59;97147.41;;;17.14;71.58
81511;BME280;70931;48.796;8.440;2023-06-26T05:46:25;97147.16;;;17.22;72.00
81511;BME280;70931;48.796;8.440;2023-06-26T05:48:52;97150.66;;;17.36;73.16
81511;BME280;70931;48.796;8.440;2023-06-26T05:51:19;97153.94;;;17.44;71.50
81511;BME280;70931;48.796;8.440;2023-06-26T05:53:46;97156.56;;;17.51;71.86
81511;BME280;70931;48.796;8.440;2023-06-26T05:56:13;97163.38;;;17.67;71.42
81511;BME280;70931;48.796;8.440;2023-06-26T05:58:40;97164.09;;;17.80;69.93
81511;BME280;70931;48.796;8.440;2023-06-26T06:01:08;97166.75;;;17.87;70.22
81511;BME280;70931;48.796;8.440;2023-06-26T06:03:34;97162.13;;;18.25;65.97
81511;BME280;70931;48.796;8.440;2023-06-26T06:06:01;97171.81;;;18.57;66.53
81511;BME280;70931;48.796;8.440;2023-06-26T06:08:28;97172.03;;;19.17;58.75
81511;BME280;70931;48.796;8.440;2023-06-26T06:10:54;97170.47;;;19.57;60.05
81511;BME280;70931;48.796;8.440;2023-06-26T06:13:21;97178.09;;;20.08;56.96
81511;BME280;70931;48.796;8.440;2023-06-26T06:15:47;97167.09;;;20.44;56.28
81511;BME280;70931;48.796;8.440;2023-06-26T06:18:14;97165.91;;;20.75;54.71
81511;BME280;70931;48.796;8.440;2023-06-26T06:20:40;97165.91;;;20.98;51.52
81511;BME280;70931;48.796;8.440;2023-06-26T06:23:07;97168.31;;;21.46;50.06
81511;BME280;70931;48.796;8.440;2023-06-26T06:25:34;97166.28;;;21.82;48.84
81511;BME280;70931;48.796;8.440;2023-06-26T06:28:00;97175.47;;;21.92;49.98
81511;BME280;70931;48.796;8.440;2023-06-26T06:30:27;97177.41;;;22.42;45.84
81511;BME280;70931;48.796;8.440;2023-06-26T06:33:04;97180.47;;;22.79;46.20
81511;BME280;70931;48.796;8.440;2023-06-26T06:35:31;97175.25;;;22.94;44.78
81511;BME280;70931;48.796;8.440;2023-06-26T06:37:57;97179.38;;;23.13;43.92
81511;BME280;70931;48.796;8.440;2023-06-26T06:40:24;97181.44;;;23.44;42.75
81511;BME280;70931;48.796;8.440;2023-06-26T06:42:52;97183.72;;;23.52;42.60
81511;BME280;70931;48.796;8.440;2023-06-26T06:45:18;97177.63;;;23.45;43.95
81511;BME280;70931;48.796;8.440;2023-06-26T06:47:45;97181.59;;;23.38;45.00
81511;BME280;70931;48.796;8.440;2023-06-26T06:50:11;97171.16;;;23.30;44.99
81511;BME280;70931;48.796;8.440;2023-06-26T06:52:39;97173.88;;;23.30;44.13
81511;BME280;70931;48.796;8.440;2023-06-26T06:55:07;97186.56;;;23.41;43.61
81511;BME280;70931;48.796;8.440;2023-06-26T06:57:38;97183.88;;;23.46;43.02
81511;BME280;70931;48.796;8.440;2023-06-26T07:00:08;97188.28;;;23.73;42.60
81511;BME280;70931;48.796;8.440;2023-06-26T07:02:36;97187.03;;;23.81;42.22
81511;BME280;70931;48.796;8.440;2023-06-26T07:05:03;97185.72;;;23.83;42.27
81511;BME280;70931;48.796;8.440;2023-06-26T07:07:31;97191.16;;;23.83;43.12
81511;BME280;70931;48.796;8.440;2023-06-26T07:10:03;97181.47;;;23.71;44.65
81511;BME280;70931;48.796;8.440;2023-06-26T07:12:30;97185.06;;;23.76;43.45
81511;BME280;70931;48.796;8.440;2023-06-26T07:14:57;97186.41;;;23.74;43.09
81511;BME280;70931;48.796;8.440;2023-06-26T07:17:23;97182.63;;;23.75;44.27
81511;BME280;70931;48.796;8.440;2023-06-26T07:19:50;97182.19;;;23.61;43.79
81511;BME280;70931;48.796;8.440;2023-06-26T07:22:17;97187.88;;;23.60;46.16
81511;BME280;70931;48.796;8.440;2023-06-26T07:24:45;97179.09;;;23.53;46.25
81511;BME280;70931;48.796;8.440;2023-06-26T07:27:12;97198.72;;;23.55;43.79
81511;BME280;70931;48.796;8.440;2023-06-26T07:29:38;97188.06;;;23.75;43.14
81511;BME280;70931;48.796;8.440;2023-06-26T07:32:05;97187.72;;;23.93;42.39
81511;BME280;70931;48.796;8.440;2023-06-26T07:34:32;97199.94;;;24.12;41.30
81511;BME280;70931;48.796;8.440;2023-06-26T07:36:58;97203.72;;;24.11;42.55
81511;BME280;70931;48.796;8.440;2023-06-26T07:39:25;97205.88;;;24.09;43.84
81511;BME280;70931;48.796;8.440;2023-06-26T07:41:52;97197.28;;;24.22;41.85
81511;BME280;70931;48.796;8.440;2023-06-26T07:44:19;97202.38;;;24.41;42.85
81511;BME280;70931;48.796;8.440;2023-06-26T07:46:45;97209.69;;;24.35;43.29
81511;BME280;70931;48.796;8.440;2023-06-26T07:49:12;97213.28;;;24.41;42.75
81511;BME280;70931;48.796;8.440;2023-06-26T07:51:38;97203.28;;;24.51;42.20
81511;BME280;70931;48.796;8.440;2023-06-26T07:54:05;97206.16;;;24.66;42.58
81511;BME280;70931;48.796;8.440;2023-06-26T07:56:35;97218.31;;;24.85;41.43
81511;BME280;70931;48.796;8.440;2023-06-26T07:59:18;97213.72;;;24.91;40.94
81511;BME280;70931;48.796;8.440;2023-06-26T08:01:44;97220.53;;;25.25;41.00
81511;BME280;70931;48.796;8.440;2023-06-26T08:04:11;97215.84;;;25.63;40.33
81511;BME280;70931;48.796;8.440;2023-06-26T08:06:37;97207.44;;;25.94;38.91
81511;BME280;70931;48.796;8.440;2023-06-26T08:09:07;97218.81;;;26.48;38.30
81511;BME280;70931;48.796;8.440;2023-06-26T08:11:36;97214.44;;;26.68;38.09
81511;BME280;70931;48.796;8.440;2023-06-26T08:14:03;97198.03;;;27.03;37.62
81511;BME280;70931;48.796;8.440;2023-06-26T08:16:29;97205.63;;;27.51;37.67
81511;BME280;70931;48.796;8.440;2023-06-26T08:18:56;97201.28;;;28.09;37.86
81511;BME280;70931;48.796;8.440;2023-06-26T08:21:23;97204.34;;;28.42;35.60
81511;BME280;70931;48.796;8.440;2023-06-26T08:23:49;97207.31;;;28.50;35.61
81511;BME280;70931;48.796;8.440;2023-06-26T08:26:16;97208.47;;;28.39;34.83
81511;BME280;70931;48.796;8.440;2023-06-26T08:28:42;97215.00;;;28.48;34.44
81511;BME280;70931;48.796;8.440;2023-06-26T08:31:09;97216.44;;;28.79;35.39
81511;BME280;70931;48.796;8.440;2023-06-26T08:33:35;97226.47;;;29.28;33.94
81511;BME280;70931;48.796;8.440;2023-06-26T08:36:02;97224.94;;;29.12;33.66
81511;BME280;70931;48.796;8.440;2023-06-26T08:38:29;97231.03;;;28.75;34.41
81511;BME280;70931;48.796;8.440;2023-06-26T08:40:55;97227.34;;;28.90;34.24
81511;BME280;70931;48.796;8.440;2023-06-26T08:43:22;97239.78;;;29.11;34.55
81511;BME280;70931;48.796;8.440;2023-06-26T08:45:49;97240.34;;;29.08;34.18
81511;BME280;70931;48.796;8.440;2023-06-26T08:48:20;97239.09;;;29.29;34.75
81511;BME280;70931;48.796;8.440;2023-06-26T08:50:48;97246.06;;;29.45;34.76
81511;BME280;70931;48.796;8.440;2023-06-26T08:54:16;97245.16;;;29.26;34.56
81511;BME280;70931;48.796;8.440;2023-06-26T08:56:27;97254.50;;;29.25;35.90
81511;BME280;70931;48.796;8.440;2023-06-26T08:58:55;97259.97;;;29.30;35.95
81511;BME280;70931;48.796;8.440;2023-06-26T09:01:22;97255.53;;;29.34;35.59
81511;BME280;70931;48.796;8.440;2023-06-26T09:03:51;97281.97;;;29.54;35.39
81511;BME280;70931;48.796;8.440;2023-06-26T09:06:18;97271.09;;;29.44;35.57
81511;BME280;70931;48.796;8.440;2023-06-26T09:08:45;97275.91;;;29.28;35.99
81511;BME280;70931;48.796;8.440;2023-06-26T09:11:12;97278.81;;;29.70;35.69
81511;BME280;70931;48.796;8.440;2023-06-26T09:13:39;97290.56;;;30.00;35.13
81511;BME280;70931;48.796;8.440;2023-06-26T09:16:07;97278.75;;;28.79;37.04
81511;BME280;70931;48.796;8.440;2023-06-26T09:18:34;97298.84;;;28.74;37.16
81511;BME280;70931;48.796;8.440;2023-06-26T09:21:06;97283.56;;;28.63;37.31
81511;BME280;70931;48.796;8.440;2023-06-26T09:23:34;97283.47;;;28.24;37.56
81511;BME280;70931;48.796;8.440;2023-06-26T09:26:07;97297.84;;;28.50;38.11
81511;BME280;70931;48.796;8.440;2023-06-26T09:28:35;97301.06;;;28.67;37.15
81511;BME280;70931;48.796;8.440;2023-06-26T09:31:03;97293.16;;;29.33;36.61
81511;BME280;70931;48.796;8.440;2023-06-26T09:33:36;97301.00;;;30.03;36.50
81511;BME280;70931;48.796;8.440;2023-06-26T09:36:07;97304.91;;;29.44;34.82
81511;BME280;70931;48.796;8.440;2023-06-26T09:38:36;97299.91;;;29.75;34.90
81511;BME280;70931;48.796;8.440;2023-06-26T09:41:03;97296.28;;;29.27;36.23
81511;BME280;70931;48.796;8.440;2023-06-26T09:43:30;97322.09;;;29.55;35.43
81511;BME280;70931;48.796;8.440;2023-06-26T09:45:58;97324.00;;;30.12;33.98
81511;BME280;70931;48.796;8.440;2023-06-26T09:48:25;97301.28;;;29.15;37.32
81511;BME280;70931;48.796;8.440;2023-06-26T09:50:53;97307.84;;;29.76;35.47
81511;BME280;70931;48.796;8.440;2023-06-26T09:53:34;97300.00;;;29.65;34.96
81511;BME280;70931;48.796;8.440;2023-06-26T09:56:08;97320.00;;;29.47;35.18
81511;BME280;70931;48.796;8.440;2023-06-26T09:58:42;97315.97;;;29.91;35.09
81511;BME280;70931;48.796;8.440;2023-06-26T10:01:10;97299.22;;;30.35;34.10
81511;BME280;70931;48.796;8.440;2023-06-26T10:03:36;97302.59;;;30.88;33.22
81511;BME280;70931;48.796;8.440;2023-06-26T10:06:04;97301.44;;;31.27;32.54
81511;BME280;70931;48.796;8.440;2023-06-26T10:08:31;97314.44;;;31.40;31.80
81511;BME280;70931;48.796;8.440;2023-06-26T10:10:58;97306.97;;;31.59;32.17
81511;BME280;70931;48.796;8.440;2023-06-26T10:13:31;97298.47;;;32.29;31.53
81511;BME280;70931;48.796;8.440;2023-06-26T10:16:01;97305.81;;;32.06;31.78
81511;BME280;70931;48.796;8.440;2023-06-26T10:18:30;97306.78;;;31.55;33.01
81511;BME280;70931;48.796;8.440;2023-06-26T10:20:58;97297.91;;;30.28;35.64
81511;BME280;70931;48.796;8.440;2023-06-26T10:23:27;97298.50;;;29.77;37.27
81511;BME280;70931;48.796;8.440;2023-06-26T10:25:55;97302.28;;;29.86;36.62
81511;BME280;70931;48.796;8.440;2023-06-26T10:28:25;97313.47;;;30.19;35.77
81511;BME280;70931;48.796;8.440;2023-06-26T10:30:53;97298.66;;;30.15;35.71
81511;BME280;70931;48.796;8.440;2023-06-26T10:33:21;97319.28;;;30.36;35.34
81511;BME280;70931;48.796;8.440;2023-06-26T10:35:48;97306.97;;;29.57;36.44
81511;BME280;70931;48.796;8.440;2023-06-26T10:38:15;97325.50;;;30.46;34.53
81511;BME280;70931;48.796;8.440;2023-06-26T10:40:44;97312.97;;;30.96;34.08
81511;BME280;70931;48.796;8.440;2023-06-26T10:43:12;97326.84;;;31.88;32.71
81511;BME280;70931;48.796;8.440;2023-06-26T10:45:52;97311.66;;;32.18;31.78
81511;BME280;70931;48.796;8.440;2023-06-26T10:48:21;97309.19;;;33.29;30.55
81511;BME280;70931;48.796;8.440;2023-06-26T10:50:49;97340.28;;;32.99;30.20
81511;BME280;70931;48.796;8.440;2023-06-26T10:55:56;97326.88;;;33.72;29.32
81511;BME280;70931;48.796;8.440;2023-06-26T11:03:38;97335.50;;;29.32;38.16
81511;BME280;70931;48.796;8.440;2023-06-26T11:06:09;97330.56;;;28.42;39.42
81511;BME280;70931;48.796;8.440;2023-06-26T11:08:51;97327.16;;;27.96;40.60
81511;BME280;70931;48.796;8.440;2023-06-26T11:11:22;97328.22;;;28.10;40.44
81511;BME280;70931;48.796;8.440;2023-06-26T11:14:08;97325.97;;;28.32;40.09
81511;BME280;70931;48.796;8.440;2023-06-26T11:16:36;97325.34;;;28.45;39.08
81511;BME280;70931;48.796;8.440;2023-06-26T11:19:03;97326.84;;;29.15;38.66
81511;BME280;70931;48.796;8.440;2023-06-26T11:21:30;97330.44;;;29.73;36.62
81511;BME280;70931;48.796;8.440;2023-06-26T11:23:57;97331.81;;;29.47;37.15
81511;BME280;70931;48.796;8.440;2023-06-26T11:26:26;97333.34;;;29.58;37.65
81511;BME280;70931;48.796;8.440;2023-06-26T11:28:55;97338.28;;;29.56;36.57
81511;BME280;70931;48.796;8.440;2023-06-26T11:31:29;97341.44;;;30.68;34.53
81511;BME280;70931;48.796;8.440;2023-06-26T11:34:02;97335.19;;;30.44;34.74
81511;BME280;70931;48.796;8.440;2023-06-26T11:36:30;97338.44;;;30.46;34.73
81511;BME280;70931;48.796;8.440;2023-06-26T11:39:01;97343.06;;;31.44;32.66
81511;BME280;70931;48.796;8.440;2023-06-26T11:41:31;97345.50;;;31.64;30.84
81511;BME280;70931;48.796;8.440;2023-06-26T11:44:05;97347.25;;;31.41;30.73
81511;BME280;70931;48.796;8.440;2023-06-26T11:46:34;97339.69;;;31.15;32.04
81511;BME280;70931;48.796;8.440;2023-06-26T11:49:07;97335.66;;;32.04;30.47
81511;BME280;70931;48.796;8.440;2023-06-26T11:51:34;97335.06;;;32.21;29.80
81511;BME280;70931;48.796;8.440;2023-06-26T11:54:03;97325.44;;;31.26;31.64
81511;BME280;70931;48.796;8.440;2023-06-26T11:56:30;97346.66;;;31.90;30.38
81511;BME280;70931;48.796;8.440;2023-06-26T11:59:00;97335.03;;;30.91;30.01
81511;BME280;70931;48.796;8.440;2023-06-26T12:01:44;97336.91;;;31.15;30.45
81511;BME280;70931;48.796;8.440;2023-06-26T12:04:12;97327.63;;;30.73;30.40
81511;BME280;70931;48.796;8.440;2023-06-26T12:06:41;97323.38;;;31.18;29.87
81511;BME280;70931;48.796;8.440;2023-06-26T12:09:10;97326.94;;;31.83;29.18
81511;BME280;70931;48.796;8.440;2023-06-26T12:11:39;97333.72;;;30.89;30.50
81511;BME280;70931;48.796;8.440;2023-06-26T12:14:07;97324.09;;;31.24;29.58
81511;BME280;70931;48.796;8.440;2023-06-26T12:16:35;97355.81;;;31.58;28.65
81511;BME280;70931;48.796;8.440;2023-06-26T12:19:03;97332.16;;;31.98;29.01
81511;BME280;70931;48.796;8.440;2023-06-26T12:24:04;97346.19;;;31.56;28.14
81511;BME280;70931;48.796;8.440;2023-06-26T12:26:31;97333.00;;;32.67;26.39
81511;BME280;70931;48.796;8.440;2023-06-26T12:29:29;97347.72;;;30.92;28.77
81511;BME280;70931;48.796;8.440;2023-06-26T12:31:54;97318.97;;;30.61;29.31
81511;BME280;70931;48.796;8.440;2023-06-26T12:37:19;97324.78;;;32.76;26.58
81511;BME280;70931;48.796;8.440;2023-06-26T12:39:56;97319.72;;;32.14;27.14
81511;BME280;70931;48.796;8.440;2023-06-26T12:42:25;97319.31;;;32.48;26.47
81511;BME280;70931;48.796;8.440;2023-06-26T12:44:53;97328.06;;;31.82;27.36
81511;BME280;70931;48.796;8.440;2023-06-26T12:47:27;97323.19;;;33.10;25.38
81511;BME280;70931;48.796;8.440;2023-06-26T12:49:54;97318.09;;;32.54;25.71
81511;BME280;70931;48.796;8.440;2023-06-26T12:52:21;97305.97;;;33.13;25.22
81511;BME280;70931;48.796;8.440;2023-06-26T12:54:52;97315.06;;;33.80;24.80
81511;BME280;70931;48.796;8.440;2023-06-26T12:57:19;97323.88;;;34.22;23.47
81511;BME280;70931;48.796;8.440;2023-06-26T12:59:45;97314.13;;;31.60;27.42
81511;BME280;70931;48.796;8.440;2023-06-26T13:02:12;97308.88;;;30.94;28.35
81511;BME280;70931;48.796;8.440;2023-06-26T13:04:40;97329.28;;;31.44;27.32
81511;BME280;70931;48.796;8.440;2023-06-26T13:07:08;97309.53;;;32.29;26.72
81511;BME280;70931;48.796;8.440;2023-06-26T13:09:35;97300.44;;;31.69;26.93
81511;BME280;70931;48.796;8.440;2023-06-26T13:12:04;97300.34;;;32.69;26.77
81511;BME280;70931;48.796;8.440;2023-06-26T13:14:31;97284.56;;;32.34;26.40
81511;BME280;70931;48.796;8.440;2023-06-26T13:17:02;97322.06;;;33.11;26.21
81511;BME280;70931;48.796;8.440;2023-06-26T13:19:29;97303.97;;;32.42;25.99
81511;BME280;70931;48.796;8.440;2023-06-26T13:21:55;97307.66;;;31.19;28.80
81511;BME280;70931;48.796;8.440;2023-06-26T13:24:22;97311.03;;;32.07;28.02
81511;BME280;70931;48.796;8.440;2023-06-26T13:26:49;97303.34;;;32.32;27.42